Time,TemperatureF,DewpointF,PressureIn,WindDirection,WindDirectionDegrees,WindSpeedMPH,WindSpeedGustMPH,Humidity,HourlyPrecipIn,Conditions,Clouds,dailyrainin,SolarRadiationWatts/m^2,SoftwareType,DateUTC
2013-07-10 00:05:00,74.0,72.2,30.04,WSW,242,0.0,2.0,94,0.00,,,0.00,0,Wunderground v.1.15,2013-07-10 04:05:00,
2013-07-10 00:10:00,74.0,72.2,30.04,SSW,192,0.0,0.0,94,0.00,,,0.00,0,Wunderground v.1.15,2013-07-10 04:10:00,
2013-07-10 00:20:00,73.9,72.1,30.04,SW,224,1.0,1.0,94,0.00,,,0.00,0,Wunderground v.1.15,2013-07-10 04:20:00,
2013-07-10 00:25:00,73.9,72.1,30.03,South,176,0.0,1.0,94,0.00,,,0.00,0,Wunderground v.1.15,2013-07-10 04:25:00,
2013-07-10 00:30:00,73.8,72.0,30.03,South,172,0.0,1.0,94,0.00,,,0.00,0,Wunderground v.1.15,2013-07-10 04:30:00,
2013-07-10 00:35:00,73.8,72.0,30.03,SSW,205,0.0,1.0,94,0.00,,,0.00,0,Wunderground v.1.15,2013-07-10 04:35:00,
2013-07-10 00:45:00,73.7,71.9,30.03,West,262,1.0,1.0,94,0.00,,,0.00,0,Wunderground v.1.15,2013-07-10 04:45:00,
2013-07-10 00:50:00,73.6,71.8,30.03,WNW,290,1.0,1.0,94,0.00,,,0.00,0,Wunderground v.1.15,2013-07-10 04:50:00,
2013-07-10 00:55:00,73.6,71.8,30.03,WSW,241,1.0,1.0,94,0.00,,,0.00,0,Wunderground v.1.15,2013-07-10 04:55:00,
2013-07-10 01:05:00,73.5,71.7,30.02,South,189,1.0,1.0,94,0.00,,,0.00,0,Wunderground v.1.15,2013-07-10 05:05:00,
2013-07-10 01:10:00,73.5,71.7,30.02,SSW,192,0.0,0.0,94,0.00,,,0.00,0,Wunderground v.1.15,2013-07-10 05:10:00,
2013-07-10 01:15:00,73.5,71.7,30.02,SSW,192,0.0,0.0,94,0.00,,,0.00,0,Wunderground v.1.15,2013-07-10 05:15:00,
2013-07-10 01:24:00,73.4,71.6,30.02,South,191,0.0,0.0,94,0.00,,,0.00,0,Wunderground v.1.15,2013-07-10 05:24:00,
2013-07-10 01:30:00,73.4,71.6,30.02,SSW,195,0.0,1.0,94,0.00,,,0.00,0,Wunderground v.1.15,2013-07-10 05:30:00,
2013-07-10 01:35:00,73.4,71.6,30.02,WSW,250,0.0,1.0,94,0.00,,,0.00,0,Wunderground v.1.15,2013-07-10 05:35:00,
2013-07-10 01:40:00,73.4,71.6,30.02,WSW,254,0.0,0.0,94,0.00,,,0.00,0,Wunderground v.1.15,2013-07-10 05:40:00,
2013-07-10 01:50:00,73.3,71.5,30.01,South,184,0.0,2.0,94,0.00,,,0.00,0,Wunderground v.1.15,2013-07-10 05:50:00,
2013-07-10 01:55:00,73.3,71.5,30.01,South,191,0.0,2.0,94,0.00,,,0.00,0,Wunderground v.1.15,2013-07-10 05:55:00,
2013-07-10 02:00:00,73.3,71.5,30.01,SSE,167,0.0,0.0,94,0.00,,,0.00,0,Wunderground v.1.15,2013-07-10 06:00:00,
2013-07-10 02:10:00,73.3,71.5,30.01,South,185,0.0,0.0,94,0.00,,,0.00,0,Wunderground v.1.15,2013-07-10 06:10:00,
2013-07-10 02:15:00,73.2,71.4,30.00,South,171,1.0,1.0,94,0.00,,,0.00,0,Wunderground v.1.15,2013-07-10 06:15:00,
2013-07-10 02:25:00,73.2,71.4,30.00,South,177,0.0,1.0,94,0.00,,,0.00,0,Wunderground v.1.15,2013-07-10 06:25:00,
2013-07-10 02:30:00,73.1,71.6,30.00,South,178,0.0,0.0,95,0.00,,,0.00,0,Wunderground v.1.15,2013-07-10 06:30:00,
2013-07-10 02:35:00,73.1,71.6,30.00,South,182,0.0,0.0,95,0.00,,,0.00,0,Wunderground v.1.15,2013-07-10 06:35:00,
2013-07-10 02:45:00,73.1,71.6,30.00,SSW,197,0.0,0.0,95,0.00,,,0.00,0,Wunderground v.1.15,2013-07-10 06:45:00,
2013-07-10 02:55:00,73.0,71.5,30.00,WSW,244,0.0,0.0,95,0.00,,,0.00,0,Wunderground v.1.15,2013-07-10 06:55:00,
2013-07-10 03:00:00,73.0,71.5,30.00,SE,136,0.0,0.0,95,0.00,,,0.00,0,Wunderground v.1.15,2013-07-10 07:00:00,
2013-07-10 03:10:00,73.0,71.5,29.99,South,170,0.0,0.0,95,0.00,,,0.00,0,Wunderground v.1.15,2013-07-10 07:10:00,
2013-07-10 03:15:00,73.0,71.5,29.99,South,172,0.0,0.0,95,0.00,,,0.00,0,Wunderground v.1.15,2013-07-10 07:15:00,
2013-07-10 03:20:00,73.0,71.5,29.99,SSE,167,0.0,0.0,95,0.00,,,0.00,0,Wunderground v.1.15,2013-07-10 07:20:00,
2013-07-10 03:30:00,73.0,71.5,29.99,SSW,206,0.0,0.0,95,0.00,,,0.00,0,Wunderground v.1.15,2013-07-10 07:30:00,
2013-07-10 03:40:00,72.9,71.4,29.99,South,184,0.0,0.0,95,0.00,,,0.00,0,Wunderground v.1.15,2013-07-10 07:40:00,
2013-07-10 03:50:00,72.9,71.4,29.99,South,186,1.0,1.0,95,0.00,,,0.00,0,Wunderground v.1.15,2013-07-10 07:50:00,
2013-07-10 03:55:00,72.9,71.4,29.99,SSW,198,0.0,1.0,95,0.00,,,0.00,0,Wunderground v.1.15,2013-07-10 07:55:00,
2013-07-10 04:00:00,72.9,71.4,29.99,SSE,154,0.0,0.0,95,0.00,,,0.00,0,Wunderground v.1.15,2013-07-10 08:00:00,
2013-07-10 04:10:00,72.8,71.3,29.98,SSW,194,0.0,0.0,95,0.00,,,0.00,0,Wunderground v.1.15,2013-07-10 08:10:00,
2013-07-10 04:15:00,72.8,71.3,29.98,SSW,194,0.0,0.0,95,0.00,,,0.00,0,Wunderground v.1.15,2013-07-10 08:15:00,
2013-07-10 04:20:00,72.8,71.3,29.98,SSW,194,0.0,0.0,95,0.00,,,0.00,0,Wunderground v.1.15,2013-07-10 08:20:00,
2013-07-10 04:30:00,72.8,71.3,29.98,SSW,194,0.0,0.0,95,0.00,,,0.00,0,Wunderground v.1.15,2013-07-10 08:30:00,
2013-07-10 04:35:00,72.8,71.3,29.98,SSW,194,0.0,0.0,95,0.00,,,0.00,0,Wunderground v.1.15,2013-07-10 08:35:00,
2013-07-10 04:40:00,72.8,71.3,29.98,SSW,194,0.0,0.0,95,0.00,,,0.00,0,Wunderground v.1.15,2013-07-10 08:40:00,
2013-07-10 04:50:00,72.7,71.2,29.97,SSW,194,0.0,0.0,95,0.00,,,0.00,0,Wunderground v.1.15,2013-07-10 08:50:00,
2013-07-10 05:00:00,72.8,71.3,29.98,SSW,194,0.0,0.0,95,0.00,,,0.00,0,Wunderground v.1.15,2013-07-10 09:00:00,
2013-07-10 05:05:00,72.8,71.3,29.98,SSW,194,0.0,0.0,95,0.00,,,0.00,0,Wunderground v.1.15,2013-07-10 09:05:00,
2013-07-10 05:10:00,72.8,71.3,29.98,SSW,194,0.0,0.0,95,0.00,,,0.00,0,Wunderground v.1.15,2013-07-10 09:10:00,
2013-07-10 05:20:00,72.8,71.3,29.98,SSW,194,0.0,0.0,95,0.00,,,0.00,0,Wunderground v.1.15,2013-07-10 09:20:00,
2013-07-10 05:25:00,72.8,71.3,29.98,SSW,194,0.0,0.0,95,0.00,,,0.00,0,Wunderground v.1.15,2013-07-10 09:25:00,
2013-07-10 05:35:00,72.9,71.4,29.99,SSW,194,0.0,0.0,95,0.00,,,0.00,0,Wunderground v.1.15,2013-07-10 09:35:00,
2013-07-10 05:45:00,72.8,71.3,29.99,SSW,195,0.0,0.0,95,0.00,,,0.00,0,Wunderground v.1.15,2013-07-10 09:45:00,
2013-07-10 05:55:00,72.6,70.8,29.99,SSE,167,0.0,0.0,94,0.00,,,0.00,0,Wunderground v.1.15,2013-07-10 09:55:00,
2013-07-10 06:00:00,72.5,70.7,29.99,SSW,200,0.0,1.0,94,0.00,,,0.00,0,Wunderground v.1.15,2013-07-10 10:00:00,
2013-07-10 06:05:00,72.5,71.0,29.99,SSW,196,0.0,1.0,95,0.00,,,0.00,0,Wunderground v.1.15,2013-07-10 10:05:00,
2013-07-10 06:15:00,72.4,70.9,30.00,South,178,0.0,0.0,95,0.00,,,0.01,0,Wunderground v.1.15,2013-07-10 10:15:00,
2013-07-10 06:20:00,72.4,70.9,30.00,SSW,206,0.0,0.0,95,0.00,,,0.01,5,Wunderground v.1.15,2013-07-10 10:20:00,
2013-07-10 06:30:00,72.3,70.8,30.00,South,175,0.0,0.0,95,0.00,,,0.01,14,Wunderground v.1.15,2013-07-10 10:30:00,
2013-07-10 06:40:00,72.3,70.8,30.00,South,178,0.0,0.0,95,0.00,,,0.01,25,Wunderground v.1.15,2013-07-10 10:40:00,
2013-07-10 06:50:00,72.4,70.9,30.00,SSE,165,0.0,0.0,95,0.00,,,0.01,33,Wunderground v.1.15,2013-07-10 10:50:00,
2013-07-10 06:55:00,72.4,70.9,29.99,SSE,166,0.0,0.0,95,0.00,,,0.01,42,Wunderground v.1.15,2013-07-10 10:55:00,
2013-07-10 07:00:00,72.4,70.9,29.99,SSE,165,0.0,0.0,95,0.00,,,0.01,32,Wunderground v.1.15,2013-07-10 11:00:00,
2013-07-10 07:10:00,72.6,71.1,29.99,SSE,164,0.0,0.0,95,0.00,,,0.01,40,Wunderground v.1.15,2013-07-10 11:10:00,
2013-07-10 07:14:00,72.6,71.1,29.99,SSE,164,0.0,0.0,95,0.00,,,0.01,49,Wunderground v.1.15,2013-07-10 11:14:00,
2013-07-10 07:20:00,72.6,71.1,30.00,SSE,164,0.0,0.0,95,0.00,,,0.01,37,Wunderground v.1.15,2013-07-10 11:20:00,
2013-07-10 07:30:00,72.7,71.2,30.00,SE,141,0.0,2.0,95,0.00,,,0.01,47,Wunderground v.1.15,2013-07-10 11:30:00,
2013-07-10 07:40:00,72.7,71.2,29.99,SSW,195,0.0,0.0,95,0.00,,,0.01,49,Wunderground v.1.15,2013-07-10 11:40:00,
2013-07-10 07:45:00,72.8,71.3,29.99,SSW,196,0.0,0.0,95,0.00,,,0.01,47,Wunderground v.1.15,2013-07-10 11:45:00,
2013-07-10 07:55:00,72.9,71.4,29.99,South,189,1.0,3.0,95,0.00,,,0.01,54,Wunderground v.1.15,2013-07-10 11:55:00,
2013-07-10 08:00:00,73.0,71.5,29.99,SSW,211,1.0,1.0,95,0.00,,,0.01,58,Wunderground v.1.15,2013-07-10 12:00:00,
2013-07-10 08:10:00,73.2,71.7,29.99,South,186,1.0,1.0,95,0.00,,,0.01,62,Wunderground v.1.15,2013-07-10 12:10:00,
2013-07-10 08:15:00,73.3,71.8,29.99,South,180,0.0,1.0,95,0.00,,,0.01,62,Wunderground v.1.15,2013-07-10 12:15:00,
2013-07-10 08:25:00,73.5,71.7,29.99,South,188,0.0,0.0,94,0.00,,,0.01,65,Wunderground v.1.15,2013-07-10 12:25:00,
2013-07-10 08:30:00,73.6,71.8,29.99,West,263,0.0,0.0,94,0.00,,,0.01,63,Wunderground v.1.15,2013-07-10 12:30:00,
2013-07-10 08:40:00,73.9,71.7,29.99,SW,219,0.0,0.0,93,0.00,,,0.01,69,Wunderground v.1.15,2013-07-10 12:40:00,
2013-07-10 08:50:00,74.2,71.7,29.99,SW,228,0.0,0.0,92,0.00,,,0.01,70,Wunderground v.1.15,2013-07-10 12:50:00,
2013-07-10 08:55:00,74.4,71.9,29.99,South,188,0.0,0.0,92,0.00,,,0.01,72,Wunderground v.1.15,2013-07-10 12:55:00,
2013-07-10 09:00:00,74.5,71.7,29.99,South,171,1.0,1.0,91,0.00,,,0.01,77,Wunderground v.1.15,2013-07-10 13:00:00,
2013-07-10 09:10:00,74.9,72.1,29.99,South,174,1.0,1.0,91,0.00,,,0.01,128,Wunderground v.1.15,2013-07-10 13:10:00,
2013-07-10 09:15:00,75.1,72.3,29.98,SSW,205,1.0,1.0,91,0.00,,,0.01,91,Wunderground v.1.15,2013-07-10 13:15:00,
2013-07-10 09:20:00,75.3,72.2,29.98,SSE,153,1.0,1.0,90,0.00,,,0.01,97,Wunderground v.1.15,2013-07-10 13:20:00,
2013-07-10 09:25:00,75.5,72.4,29.98,WNW,284,1.0,1.0,90,0.00,,,0.01,132,Wunderground v.1.15,2013-07-10 13:25:00,
2013-07-10 09:35:00,75.8,72.3,29.98,SSW,192,1.0,2.0,89,0.00,,,0.01,134,Wunderground v.1.15,2013-07-10 13:35:00,
2013-07-10 09:40:00,76.0,72.9,29.98,South,172,0.0,0.0,90,0.00,,,0.01,179,Wunderground v.1.15,2013-07-10 13:40:00,
2013-07-10 09:50:00,76.3,72.8,29.97,SSW,200,1.0,1.0,89,0.00,,,0.01,171,Wunderground v.1.15,2013-07-10 13:50:00,
2013-07-10 10:00:00,76.6,72.8,29.97,SSE,155,1.0,1.0,88,0.00,,,0.01,207,Wunderground v.1.15,2013-07-10 14:00:00,
2013-07-10 10:05:00,76.8,73.0,29.97,SSE,160,1.0,1.0,88,0.00,,,0.01,200,Wunderground v.1.15,2013-07-10 14:05:00,
2013-07-10 10:15:00,77.2,73.0,29.97,South,185,1.0,2.0,87,0.00,,,0.01,163,Wunderground v.1.15,2013-07-10 14:15:00,
2013-07-10 10:20:00,77.4,73.6,29.97,SSW,198,1.0,1.0,88,0.00,,,0.01,128,Wunderground v.1.15,2013-07-10 14:20:00,
2013-07-10 10:30:00,77.7,73.5,29.96,South,178,1.0,1.0,87,0.00,,,0.01,121,Wunderground v.1.15,2013-07-10 14:30:00,
2013-07-10 10:40:00,78.1,73.6,29.95,SSW,195,1.0,5.0,86,0.00,,,0.01,149,Wunderground v.1.15,2013-07-10 14:40:00,
2013-07-10 10:50:00,78.3,73.4,29.96,South,171,2.0,2.0,85,0.00,,,0.01,213,Wunderground v.1.15,2013-07-10 14:50:00,
2013-07-10 11:00:00,78.4,73.9,29.96,SW,218,3.0,3.0,86,0.00,,,0.01,287,Wunderground v.1.15,2013-07-10 15:00:00,
2013-07-10 11:10:00,78.7,74.2,29.96,South,170,1.0,1.0,86,0.00,,,0.01,262,Wunderground v.1.15,2013-07-10 15:10:00,
2013-07-10 11:15:00,78.8,73.9,29.96,South,178,1.0,1.0,85,0.00,,,0.01,264,Wunderground v.1.15,2013-07-10 15:15:00,
2013-07-10 11:20:00,78.8,73.9,29.96,South,175,2.0,2.0,85,0.00,,,0.01,265,Wunderground v.1.15,2013-07-10 15:20:00,
2013-07-10 11:30:00,78.8,73.9,29.96,South,175,1.0,1.0,85,0.00,,,0.01,248,Wunderground v.1.15,2013-07-10 15:30:00,
2013-07-10 11:40:00,78.7,74.2,29.96,West,267,1.0,3.0,86,0.00,,,0.01,276,Wunderground v.1.15,2013-07-10 15:40:00,
2013-07-10 11:45:00,78.7,74.2,29.95,SSE,157,1.0,3.0,86,0.00,,,0.01,283,Wunderground v.1.15,2013-07-10 15:45:00,
2013-07-10 11:50:00,78.8,73.9,29.95,South,189,1.0,1.0,85,0.00,,,0.01,271,Wunderground v.1.15,2013-07-10 15:50:00,
2013-07-10 12:00:00,79.0,74.5,29.95,SW,215,1.0,1.0,86,0.00,,,0.01,302,Wunderground v.1.15,2013-07-10 16:00:00,
2013-07-10 12:05:00,79.1,74.2,29.95,SSW,213,2.0,2.0,85,0.00,,,0.01,392,Wunderground v.1.15,2013-07-10 16:05:00,
2013-07-10 12:15:00,79.3,74.4,29.94,SSE,157,2.0,2.0,85,0.00,,,0.01,390,Wunderground v.1.15,2013-07-10 16:15:00,
2013-07-10 12:20:00,79.4,74.5,29.94,SSW,213,2.0,2.0,85,0.00,,,0.01,399,Wunderground v.1.15,2013-07-10 16:20:00,
2013-07-10 12:25:00,79.5,74.2,29.94,SW,231,1.0,2.0,84,0.00,,,0.01,334,Wunderground v.1.15,2013-07-10 16:25:00,
2013-07-10 12:35:00,79.6,74.3,29.94,West,269,1.0,2.0,84,0.00,,,0.01,362,Wunderground v.1.15,2013-07-10 16:35:00,
2013-07-10 12:40:00,79.6,74.3,29.94,West,260,1.0,3.0,84,0.00,,,0.01,299,Wunderground v.1.15,2013-07-10 16:40:00,
2013-07-10 12:45:00,79.5,74.2,29.93,WSW,256,1.0,3.0,84,0.00,,,0.01,315,Wunderground v.1.15,2013-07-10 16:45:00,
2013-07-10 12:55:00,79.5,74.6,29.93,WSW,249,2.0,2.0,85,0.00,,,0.01,309,Wunderground v.1.15,2013-07-10 16:55:00,
2013-07-10 13:00:00,79.4,74.5,29.93,South,187,2.0,2.0,85,0.00,,,0.01,309,Wunderground v.1.15,2013-07-10 17:00:00,
2013-07-10 13:10:00,79.3,74.4,29.93,South,175,2.0,3.0,85,0.00,,,0.01,216,Wunderground v.1.15,2013-07-10 17:10:00,
2013-07-10 13:15:00,79.1,74.5,29.93,SSW,201,1.0,3.0,86,0.00,,,0.01,204,Wunderground v.1.15,2013-07-10 17:15:00,
2013-07-10 13:25:00,78.9,74.4,29.92,South,181,2.0,2.0,86,0.00,,,0.01,241,Wunderground v.1.15,2013-07-10 17:25:00,
2013-07-10 13:35:00,78.7,74.2,29.92,West,275,1.0,1.0,86,0.00,,,0.01,221,Wunderground v.1.15,2013-07-10 17:35:00,
2013-07-10 13:40:00,78.4,74.2,29.91,South,184,1.0,2.0,87,0.00,,,0.01,209,Wunderground v.1.15,2013-07-10 17:40:00,
2013-07-10 13:45:00,78.3,74.1,29.91,South,189,1.0,2.0,87,0.00,,,0.01,169,Wunderground v.1.15,2013-07-10 17:45:00,
2013-07-10 13:55:00,78.1,74.3,29.91,South,186,1.0,3.0,88,0.00,,,0.01,197,Wunderground v.1.15,2013-07-10 17:55:00,
2013-07-10 14:00:00,78.0,74.2,29.91,South,174,1.0,4.0,88,0.00,,,0.01,195,Wunderground v.1.15,2013-07-10 18:00:00,
2013-07-10 14:05:00,77.8,74.0,29.91,South,175,2.0,4.0,88,0.00,,,0.01,200,Wunderground v.1.15,2013-07-10 18:05:00,
2013-07-10 14:14:00,77.7,73.9,29.90,SSE,166,2.0,2.0,88,0.00,,,0.01,241,Wunderground v.1.15,2013-07-10 18:14:00,
2013-07-10 14:20:00,77.6,73.8,29.90,SSE,157,1.0,4.0,88,0.00,,,0.01,248,Wunderground v.1.15,2013-07-10 18:20:00,
2013-07-10 14:25:00,77.6,74.1,29.90,East,95,2.0,4.0,89,0.00,,,0.01,202,Wunderground v.1.15,2013-07-10 18:25:00,
2013-07-10 14:30:00,77.6,74.1,29.90,WSW,246,1.0,1.0,89,0.00,,,0.01,127,Wunderground v.1.15,2013-07-10 18:30:00,
2013-07-10 14:35:00,77.6,74.1,29.90,SW,221,1.0,3.0,89,0.00,,,0.01,162,Wunderground v.1.15,2013-07-10 18:35:00,
2013-07-10 14:45:00,77.5,74.0,29.90,South,176,1.0,2.0,89,0.00,,,0.01,195,Wunderground v.1.15,2013-07-10 18:45:00,
2013-07-10 14:50:00,77.5,74.0,29.90,West,276,1.0,1.0,89,0.00,,,0.01,148,Wunderground v.1.15,2013-07-10 18:50:00,
2013-07-10 14:59:00,77.4,73.9,29.90,South,190,1.0,1.0,89,0.00,,,0.01,149,Wunderground v.1.15,2013-07-10 18:59:00,
2013-07-10 15:05:00,77.4,73.9,29.89,SSW,200,1.0,1.0,89,0.00,,,0.01,155,Wunderground v.1.15,2013-07-10 19:05:00,
2013-07-10 15:15:00,77.2,73.7,29.88,SSW,210,1.0,1.0,89,0.00,,,0.01,121,Wunderground v.1.15,2013-07-10 19:15:00,
2013-07-10 15:20:00,77.1,73.6,29.89,South,188,1.0,1.0,89,0.00,,,0.01,241,Wunderground v.1.15,2013-07-10 19:20:00,
2013-07-10 15:30:00,77.2,74.0,29.88,West,262,2.0,5.0,90,0.00,,,0.01,236,Wunderground v.1.15,2013-07-10 19:30:00,
2013-07-10 15:35:00,77.3,73.8,29.88,SSW,213,2.0,5.0,89,0.00,,,0.01,241,Wunderground v.1.15,2013-07-10 19:35:00,
2013-07-10 15:40:00,77.4,73.9,29.88,West,263,2.0,2.0,89,0.00,,,0.01,297,Wunderground v.1.15,2013-07-10 19:40:00,
2013-07-10 15:50:00,77.3,73.8,29.88,SSW,206,1.0,1.0,89,0.00,,,0.01,54,Wunderground v.1.15,2013-07-10 19:50:00,
2013-07-10 16:00:00,76.8,73.6,29.88,South,173,1.0,1.0,90,0.00,,,0.01,30,Wunderground v.1.15,2013-07-10 20:00:00,
2013-07-10 16:10:00,76.2,73.1,29.88,West,265,1.0,4.0,90,0.00,,,0.01,39,Wunderground v.1.15,2013-07-10 20:10:00,
2013-07-10 16:19:00,75.9,73.1,29.87,West,264,2.0,2.0,91,0.00,,,0.01,153,Wunderground v.1.15,2013-07-10 20:19:00,
2013-07-10 16:25:00,75.9,73.4,29.86,South,188,1.0,2.0,92,0.00,,,0.01,209,Wunderground v.1.15,2013-07-10 20:25:00,
2013-07-10 16:30:00,76.0,73.5,29.86,SSW,196,1.0,1.0,92,0.00,,,0.01,239,Wunderground v.1.15,2013-07-10 20:30:00,
2013-07-10 16:40:00,76.4,73.6,29.85,South,169,1.0,2.0,91,0.00,,,0.01,209,Wunderground v.1.15,2013-07-10 20:40:00,
2013-07-10 16:45:00,76.6,73.8,29.85,SSW,204,1.0,2.0,91,0.00,,,0.01,209,Wunderground v.1.15,2013-07-10 20:45:00,
2013-07-10 16:50:00,77.1,73.9,29.85,SW,234,1.0,1.0,90,0.00,,,0.01,185,Wunderground v.1.15,2013-07-10 20:50:00,
2013-07-10 17:00:00,77.7,73.9,29.85,South,185,1.0,2.0,88,0.00,,,0.01,197,Wunderground v.1.15,2013-07-10 21:00:00,
2013-07-10 17:05:00,77.9,73.4,29.85,WSW,248,1.0,3.0,86,0.00,,,0.01,202,Wunderground v.1.15,2013-07-10 21:05:00,
2013-07-10 17:10:00,78.3,73.8,29.85,South,175,1.0,1.0,86,0.00,,,0.01,227,Wunderground v.1.15,2013-07-10 21:10:00,
2013-07-10 17:20:00,78.3,73.8,29.85,WNW,286,1.0,1.0,86,0.00,,,0.01,160,Wunderground v.1.15,2013-07-10 21:20:00,
2013-07-10 17:25:00,78.1,73.6,29.85,WSW,241,1.0,2.0,86,0.00,,,0.01,290,Wunderground v.1.15,2013-07-10 21:25:00,
2013-07-10 17:30:00,78.1,73.9,29.85,WSW,240,1.0,1.0,87,0.00,,,0.01,234,Wunderground v.1.15,2013-07-10 21:30:00,
2013-07-10 17:40:00,78.2,74.0,29.84,SSW,198,2.0,2.0,87,0.00,,,0.01,193,Wunderground v.1.15,2013-07-10 21:40:00,
2013-07-10 17:50:00,78.2,74.0,29.84,South,183,1.0,1.0,87,0.00,,,0.01,113,Wunderground v.1.15,2013-07-10 21:50:00,
2013-07-10 18:00:00,78.0,73.5,29.84,South,189,1.0,1.0,86,0.00,,,0.01,202,Wunderground v.1.15,2013-07-10 22:00:00,
2013-07-10 18:10:00,77.7,73.5,29.84,SW,221,1.0,2.0,87,0.00,,,0.01,127,Wunderground v.1.15,2013-07-10 22:10:00,
2013-07-10 18:15:00,77.6,73.4,29.84,South,182,1.0,2.0,87,0.00,,,0.01,102,Wunderground v.1.15,2013-07-10 22:15:00,
2013-07-10 18:25:00,77.4,73.2,29.84,SW,217,1.0,1.0,87,0.00,,,0.01,62,Wunderground v.1.15,2013-07-10 22:25:00,
2013-07-10 18:35:00,77.2,73.0,29.84,SW,228,1.0,1.0,87,0.00,,,0.01,65,Wunderground v.1.15,2013-07-10 22:35:00,
2013-07-10 18:45:00,77.0,72.8,29.84,SSW,192,1.0,4.0,87,0.00,,,0.01,44,Wunderground v.1.15,2013-07-10 22:45:00,
2013-07-10 18:50:00,76.9,72.7,29.84,South,184,1.0,1.0,87,0.00,,,0.01,46,Wunderground v.1.15,2013-07-10 22:50:00,
2013-07-10 19:00:00,76.7,72.5,29.85,WSW,248,1.0,1.0,87,0.00,,,0.01,26,Wunderground v.1.15,2013-07-10 23:00:00,
2013-07-10 19:05:00,76.6,72.4,29.85,WNW,282,1.0,3.0,87,0.00,,,0.01,28,Wunderground v.1.15,2013-07-10 23:05:00,
2013-07-10 19:15:00,76.5,72.7,29.86,South,189,1.0,1.0,88,0.00,,,0.01,40,Wunderground v.1.15,2013-07-10 23:15:00,
2013-07-10 19:25:00,76.4,72.6,29.86,SE,138,1.0,2.0,88,0.00,,,0.01,56,Wunderground v.1.15,2013-07-10 23:25:00,
2013-07-10 19:30:00,76.4,72.9,29.86,South,179,1.0,1.0,89,0.00,,,0.01,33,Wunderground v.1.15,2013-07-10 23:30:00,
2013-07-10 19:40:00,76.4,72.9,29.86,SSW,200,2.0,2.0,89,0.00,,,0.01,16,Wunderground v.1.15,2013-07-10 23:40:00,
2013-07-10 19:45:00,76.3,72.8,29.87,South,175,1.0,2.0,89,0.00,,,0.01,14,Wunderground v.1.15,2013-07-10 23:45:00,
2013-07-10 19:55:00,75.9,72.8,29.87,SW,232,1.0,2.0,90,0.00,,,0.01,5,Wunderground v.1.15,2013-07-10 23:55:00,
2013-07-10 20:00:00,75.7,72.6,29.87,WSW,250,1.0,1.0,90,0.00,,,0.01,5,Wunderground v.1.15,2013-07-11 00:00:00,
2013-07-10 20:10:00,75.4,72.6,29.86,SSW,201,2.0,2.0,91,0.00,,,0.01,0,Wunderground v.1.15,2013-07-11 00:10:00,
2013-07-10 20:20:00,75.3,72.5,29.86,SW,232,1.0,1.0,91,0.00,,,0.01,0,Wunderground v.1.15,2013-07-11 00:20:00,
2013-07-10 20:25:00,75.2,72.7,29.86,SSE,149,1.0,1.0,92,0.00,,,0.01,0,Wunderground v.1.15,2013-07-11 00:25:00,
2013-07-10 20:35:00,75.0,72.5,29.86,West,275,2.0,3.0,92,0.00,,,0.01,0,Wunderground v.1.15,2013-07-11 00:35:00,
2013-07-10 20:45:00,74.9,72.4,29.86,SSW,211,1.0,1.0,92,0.00,,,0.01,0,Wunderground v.1.15,2013-07-11 00:45:00,
2013-07-10 20:50:00,74.8,72.3,29.86,West,266,1.0,3.0,92,0.00,,,0.01,0,Wunderground v.1.15,2013-07-11 00:50:00,
2013-07-10 20:55:00,74.7,72.2,29.86,West,265,2.0,3.0,92,0.00,,,0.01,0,Wunderground v.1.15,2013-07-11 00:55:00,
2013-07-10 21:05:00,74.6,72.1,29.86,West,269,1.0,3.0,92,0.00,,,0.01,0,Wunderground v.1.15,2013-07-11 01:05:00,
2013-07-10 21:15:00,74.5,72.3,29.87,NW,314,1.0,1.0,93,0.00,,,0.01,0,Wunderground v.1.15,2013-07-11 01:15:00,
2013-07-10 21:25:00,74.4,72.2,29.87,West,261,1.0,3.0,93,0.00,,,0.01,0,Wunderground v.1.15,2013-07-11 01:25:00,
2013-07-10 21:35:00,74.4,72.2,29.87,South,182,1.0,2.0,93,0.00,,,0.01,0,Wunderground v.1.15,2013-07-11 01:35:00,
2013-07-10 21:45:00,74.3,72.1,29.87,South,178,1.0,1.0,93,0.00,,,0.01,0,Wunderground v.1.15,2013-07-11 01:45:00,
2013-07-10 21:55:00,74.3,72.1,29.87,SW,214,2.0,3.0,93,0.00,,,0.01,0,Wunderground v.1.15,2013-07-11 01:55:00,
2013-07-10 22:00:00,74.3,72.1,29.87,West,271,2.0,2.0,93,0.00,,,0.01,0,Wunderground v.1.15,2013-07-11 02:00:00,
2013-07-10 22:10:00,74.3,72.1,29.87,WSW,239,1.0,2.0,93,0.00,,,0.01,0,Wunderground v.1.15,2013-07-11 02:10:00,
2013-07-10 22:15:00,74.3,72.1,29.87,WSW,255,1.0,2.0,93,0.00,,,0.01,0,Wunderground v.1.15,2013-07-11 02:15:00,
2013-07-10 22:25:00,74.2,72.0,29.87,West,280,1.0,1.0,93,0.00,,,0.01,0,Wunderground v.1.15,2013-07-11 02:25:00,
2013-07-10 22:30:00,74.1,71.9,29.87,West,281,1.0,1.0,93,0.00,,,0.01,0,Wunderground v.1.15,2013-07-11 02:30:00,
2013-07-10 22:40:00,74.0,71.8,29.87,SSW,200,1.0,1.0,93,0.00,,,0.01,0,Wunderground v.1.15,2013-07-11 02:40:00,
2013-07-10 22:50:00,74.0,71.8,29.86,SW,227,1.0,1.0,93,0.00,,,0.01,0,Wunderground v.1.15,2013-07-11 02:50:00,
2013-07-10 22:55:00,73.9,71.7,29.86,ENE,77,1.0,1.0,93,0.00,,,0.01,0,Wunderground v.1.15,2013-07-11 02:55:00,
2013-07-10 23:05:00,73.8,71.6,29.86,SW,220,1.0,1.0,93,0.00,,,0.01,0,Wunderground v.1.15,2013-07-11 03:05:00,
2013-07-10 23:10:00,73.8,71.6,29.86,West,261,1.0,2.0,93,0.00,,,0.01,0,Wunderground v.1.15,2013-07-11 03:10:00,
2013-07-10 23:20:00,73.7,71.5,29.85,West,270,1.0,1.0,93,0.00,,,0.01,0,Wunderground v.1.15,2013-07-11 03:20:00,
2013-07-10 23:30:00,73.7,71.5,29.85,West,259,1.0,1.0,93,0.00,,,0.01,0,Wunderground v.1.15,2013-07-11 03:30:00,
2013-07-10 23:40:00,73.7,71.5,29.85,West,260,1.0,2.0,93,0.00,,,0.01,0,Wunderground v.1.15,2013-07-11 03:40:00,
2013-07-10 23:50:00,73.7,71.5,29.85,SW,236,1.0,1.0,93,0.00,,,0.01,0,Wunderground v.1.15,2013-07-11 03:50:00,